Aviation Digital Data Service (ADDS)

Output produced by METARs form (0037 UTC 25 October 2014)
found at http://aviationweather.gov/adds/metars/
 
KGSO 242320Z 2500/2524 VRB03KT P6SM BKN200